Terminal Aerodrome Forecast
Issued by NWS New Orleans/Baton Rouge, LA

Home | Current Version | Previous Version | Text Only | Print | Product List | Glossary On
Versions: 1 2 3 4 5 6 7 8 9 10 11 12 13 14
000
FTUS44 KLIX 301003 AAA
TAFBTR
TAF AMD
KBTR 301003Z 3010/3106 VRB03KT P6SM BKN040
      TEMPO 3010/3013 2SM BR SCT020
     FM301400 26005KT P6SM SCT030
     FM301800 26007KT P6SM BKN035 BKN250
     FM302300 24008KT P6SM BKN040 BKN250=

USA.gov is the U.S. government's official web portal to all federal, state and local government web resources and services.